DLH493 CYVR-EDDF
Flight info
| Callsign | DLH493 |
|---|---|
| Flight time | 3h 56m |
| Altitude | 31000 |
| Route | DOLLR DCT GARRE DCT SEATN DCT 5230N12000W 58N110W 6230N10000W/N0494F330 65N090W 6630N08000W 6730N07000W/M085F330 DCT CANEL DCT 68N060W 68N050W 6730N04000W/M084F350 66N030W 64N020W DCT RATSU/N0494F350 DCT DEVBI DCT LONAM DCT SOGPO DCT DIXAT DIXAT1A |
| Aircraft | B77W/H-SDE1E2E3FGHIJ2J3J4J5M1RWXY/LB1D1 |
Departure
| Time | 2026-05-07 15:17 |
|---|---|
| Airport | Vancouver International Airport (CYVR) |
Arrival
| Time | 2026-05-07 19:13 |
|---|---|
| Airport | Frankfurt Main Airport (EDDF) |
| Time | Latitude | Longitude | Altitude | Speed | Heading |
|---|---|---|---|---|---|
| 2026-05-07 14:35 | 49.19950 | -123.18136 | 22 ft | 0 kts | 189° |
| 2026-05-07 15:00 | 49.19951 | -123.18136 | 22 ft | 1 kts | 189° |
| 2026-05-07 15:01 | 49.19964 | -123.18132 | 24 ft | 3 kts | 189° |
| 2026-05-07 15:01 | 49.19981 | -123.18128 | 24 ft | 2 kts | 189° |
| 2026-05-07 15:01 | 49.19996 | -123.18122 | 24 ft | 3 kts | 219° |
| 2026-05-07 15:01 | 49.20005 | -123.18103 | 27 ft | 3 kts | 273° |
| 2026-05-07 15:02 | 49.20002 | -123.18073 | 25 ft | 2 kts | 281° |
| 2026-05-07 15:02 | 49.20001 | -123.18063 | 25 ft | 0 kts | 279° |
| 2026-05-07 15:06 | 49.20007 | -123.18121 | 24 ft | 8 kts | 279° |
| 2026-05-07 15:06 | 49.20018 | -123.18220 | 25 ft | 10 kts | 279° |
| 2026-05-07 15:07 | 49.20030 | -123.18323 | 26 ft | 10 kts | 279° |
| 2026-05-07 15:07 | 49.20041 | -123.18426 | 24 ft | 10 kts | 279° |
| 2026-05-07 15:07 | 49.20017 | -123.18514 | 25 ft | 10 kts | 207° |
| 2026-05-07 15:07 | 49.19948 | -123.18536 | 24 ft | 10 kts | 189° |
| 2026-05-07 15:08 | 49.19877 | -123.18555 | 24 ft | 10 kts | 190° |
| 2026-05-07 15:08 | 49.19806 | -123.18574 | 26 ft | 10 kts | 190° |
| 2026-05-07 15:08 | 49.19746 | -123.18625 | 25 ft | 10 kts | 243° |
| 2026-05-07 15:08 | 49.19754 | -123.18737 | 25 ft | 11 kts | 281° |
| 2026-05-07 15:09 | 49.19764 | -123.18819 | 23 ft | 12 kts | 279° |
| 2026-05-07 15:09 | 49.19782 | -123.18984 | 25 ft | 11 kts | 279° |
| 2026-05-07 15:09 | 49.19785 | -123.19094 | 26 ft | 11 kts | 242° |
| 2026-05-07 15:09 | 49.19741 | -123.19128 | 25 ft | 11 kts | 197° |
| 2026-05-07 15:10 | 49.19668 | -123.19152 | 22 ft | 11 kts | 192° |
| 2026-05-07 15:10 | 49.19591 | -123.19174 | 25 ft | 13 kts | 190° |
| 2026-05-07 15:10 | 49.19498 | -123.19200 | 23 ft | 14 kts | 190° |
| 2026-05-07 15:10 | 49.19404 | -123.19223 | 24 ft | 14 kts | 189° |
| 2026-05-07 15:11 | 49.19328 | -123.19296 | 20 ft | 14 kts | 245° |
| 2026-05-07 15:11 | 49.19307 | -123.19450 | 24 ft | 16 kts | 259° |
| 2026-05-07 15:11 | 49.19284 | -123.19636 | 28 ft | 18 kts | 259° |
| 2026-05-07 15:11 | 49.19260 | -123.19829 | 21 ft | 18 kts | 259° |
| 2026-05-07 15:12 | 49.19236 | -123.20017 | 25 ft | 17 kts | 259° |
| 2026-05-07 15:12 | 49.19215 | -123.20195 | 24 ft | 16 kts | 259° |
| 2026-05-07 15:12 | 49.19195 | -123.20352 | 25 ft | 14 kts | 258° |
| 2026-05-07 15:12 | 49.19180 | -123.20500 | 25 ft | 14 kts | 269° |
| 2026-05-07 15:13 | 49.19193 | -123.20628 | 20 ft | 8 kts | 281° |
| 2026-05-07 15:13 | 49.19199 | -123.20674 | 22 ft | 2 kts | 281° |
| 2026-05-07 15:13 | 49.19201 | -123.20692 | 22 ft | 2 kts | 280° |
| 2026-05-07 15:13 | 49.19202 | -123.20724 | 20 ft | 5 kts | 269° |
| 2026-05-07 15:14 | 49.19190 | -123.20794 | 22 ft | 7 kts | 234° |
| 2026-05-07 15:14 | 49.19141 | -123.20828 | 22 ft | 8 kts | 194° |
| 2026-05-07 15:14 | 49.19083 | -123.20846 | 21 ft | 8 kts | 187° |
| 2026-05-07 15:14 | 49.19028 | -123.20824 | 22 ft | 8 kts | 144° |
| 2026-05-07 15:15 | 49.19009 | -123.20764 | 21 ft | 2 kts | 99° |
| 2026-05-07 15:15 | 49.19009 | -123.20763 | 21 ft | 1 kts | 99° |
| 2026-05-07 15:16 | 49.18992 | -123.20616 | 26 ft | 32 kts | 99° |
| 2026-05-07 15:16 | 49.18908 | -123.19879 | 23 ft | 108 kts | 99° |
| 2026-05-07 15:16 | 49.18738 | -123.18399 | 25 ft | 172 kts | 100° |
| 2026-05-07 15:16 | 49.18516 | -123.16487 | 433 ft | 186 kts | 100° |
| 2026-05-07 15:17 | 49.18279 | -123.14500 | 1108 ft | 192 kts | 101° |
| 2026-05-07 15:17 | 49.18038 | -123.12466 | 1746 ft | 194 kts | 101° |
| 2026-05-07 15:17 | 49.17801 | -123.10433 | 2173 ft | 200 kts | 100° |
| 2026-05-07 15:17 | 49.17542 | -123.08248 | 2485 ft | 214 kts | 100° |
| 2026-05-07 15:18 | 49.17293 | -123.05936 | 2798 ft | 230 kts | 99° |
| 2026-05-07 15:18 | 49.17033 | -123.03411 | 3140 ft | 248 kts | 99° |
| 2026-05-07 15:18 | 49.16739 | -123.00788 | 3802 ft | 249 kts | 100° |
| 2026-05-07 15:18 | 49.16421 | -122.98174 | 4549 ft | 251 kts | 101° |
| 2026-05-07 15:19 | 49.16073 | -122.95519 | 5135 ft | 259 kts | 101° |
| 2026-05-07 15:19 | 49.15698 | -122.92803 | 5702 ft | 268 kts | 102° |
| 2026-05-07 15:19 | 49.15301 | -122.89986 | 6370 ft | 274 kts | 101° |
| 2026-05-07 15:19 | 49.14925 | -122.87121 | 7083 ft | 272 kts | 97° |
| 2026-05-07 15:20 | 49.14973 | -122.84206 | 7576 ft | 280 kts | 76° |
| 2026-05-07 15:20 | 49.15776 | -122.81459 | 8074 ft | 287 kts | 52° |
| 2026-05-07 15:20 | 49.17256 | -122.79485 | 8744 ft | 289 kts | 27° |
| 2026-05-07 15:20 | 49.19175 | -122.78573 | 9379 ft | 292 kts | 4° |
| 2026-05-07 15:21 | 49.21205 | -122.78604 | 9994 ft | 293 kts | 356° |
| 2026-05-07 15:21 | 49.23254 | -122.78798 | 10435 ft | 301 kts | 355° |
| 2026-05-07 15:21 | 49.25349 | -122.79027 | 11111 ft | 300 kts | 355° |
| 2026-05-07 15:21 | 49.27437 | -122.79251 | 11809 ft | 300 kts | 355° |
| 2026-05-07 15:22 | 49.29534 | -122.79459 | 12431 ft | 302 kts | 356° |
| 2026-05-07 15:22 | 49.31607 | -122.79658 | 12990 ft | 303 kts | 356° |
| 2026-05-07 15:22 | 49.33747 | -122.79859 | 13317 ft | 311 kts | 356° |
| 2026-05-07 15:22 | 49.35949 | -122.79708 | 13301 ft | 326 kts | 14° |
| 2026-05-07 15:23 | 49.38073 | -122.78466 | 13574 ft | 335 kts | 25° |
| 2026-05-07 15:23 | 49.40216 | -122.76880 | 13831 ft | 345 kts | 24° |
| 2026-05-07 15:23 | 49.42447 | -122.75362 | 14098 ft | 354 kts | 22° |
| 2026-05-07 15:23 | 49.44744 | -122.73874 | 14213 ft | 370 kts | 21° |
| 2026-05-07 15:24 | 49.47192 | -122.72389 | 14375 ft | 383 kts | 20° |
| 2026-05-07 15:24 | 49.49719 | -122.70903 | 14701 ft | 390 kts | 19° |
| 2026-05-07 15:24 | 49.52281 | -122.69407 | 15160 ft | 394 kts | 19° |
| 2026-05-07 15:24 | 49.54831 | -122.67917 | 15664 ft | 397 kts | 19° |
| 2026-05-07 15:25 | 49.57419 | -122.66393 | 16214 ft | 398 kts | 19° |
| 2026-05-07 15:25 | 49.60019 | -122.64856 | 16794 ft | 398 kts | 19° |
| 2026-05-07 15:25 | 49.62588 | -122.63334 | 17239 ft | 403 kts | 19° |
| 2026-05-07 15:25 | 49.65219 | -122.61772 | 17709 ft | 406 kts | 18° |
| 2026-05-07 15:26 | 49.67872 | -122.60195 | 18232 ft | 408 kts | 18° |
| 2026-05-07 15:26 | 49.70531 | -122.58613 | 18684 ft | 410 kts | 18° |
| 2026-05-07 15:26 | 49.73142 | -122.56923 | 19052 ft | 414 kts | 23° |
| 2026-05-07 15:26 | 49.75719 | -122.54837 | 19380 ft | 419 kts | 26° |
| 2026-05-07 15:27 | 49.78249 | -122.52617 | 19736 ft | 423 kts | 26° |
| 2026-05-07 15:27 | 49.80815 | -122.50326 | 20146 ft | 425 kts | 26° |
| 2026-05-07 15:27 | 49.83405 | -122.48046 | 20578 ft | 427 kts | 25° |
| 2026-05-07 15:27 | 49.85981 | -122.45816 | 20998 ft | 429 kts | 25° |
| 2026-05-07 15:28 | 49.88605 | -122.43557 | 21413 ft | 431 kts | 24° |
| 2026-05-07 15:28 | 49.91222 | -122.41294 | 21803 ft | 434 kts | 25° |
| 2026-05-07 15:28 | 49.93875 | -122.38984 | 22161 ft | 438 kts | 25° |
| 2026-05-07 15:28 | 49.96550 | -122.36648 | 22466 ft | 440 kts | 24° |
| 2026-05-07 15:29 | 49.99230 | -122.34298 | 22864 ft | 443 kts | 25° |
| 2026-05-07 15:29 | 50.01896 | -122.31950 | 23218 ft | 445 kts | 24° |
| 2026-05-07 15:29 | 50.04613 | -122.29560 | 23605 ft | 447 kts | 24° |
| 2026-05-07 15:29 | 50.07309 | -122.27185 | 23903 ft | 450 kts | 24° |
| 2026-05-07 15:30 | 50.10048 | -122.24767 | 24249 ft | 451 kts | 24° |
| 2026-05-07 15:30 | 50.12758 | -122.22371 | 24666 ft | 451 kts | 23° |
| 2026-05-07 15:30 | 50.15516 | -122.19939 | 24851 ft | 456 kts | 23° |
| 2026-05-07 15:30 | 50.18289 | -122.17504 | 25078 ft | 458 kts | 23° |
| 2026-05-07 15:31 | 50.21074 | -122.15033 | 25420 ft | 459 kts | 23° |
| 2026-05-07 15:31 | 50.23830 | -122.12578 | 25716 ft | 460 kts | 23° |
| 2026-05-07 15:31 | 50.26593 | -122.10114 | 26015 ft | 462 kts | 23° |
| 2026-05-07 15:31 | 50.29402 | -122.07619 | 26247 ft | 464 kts | 23° |
| 2026-05-07 15:32 | 50.38806 | -121.99243 | 27269 ft | 465 kts | 23° |
| 2026-05-07 15:32 | 50.50018 | -121.89189 | 28217 ft | 472 kts | 22° |
| 2026-05-07 15:32 | 50.61569 | -121.78784 | 29066 ft | 479 kts | 22° |
| 2026-05-07 15:32 | 50.71236 | -121.70023 | 29649 ft | 484 kts | 22° |
| 2026-05-07 15:33 | 50.74172 | -121.67358 | 29755 ft | 486 kts | 22° |
| 2026-05-07 15:33 | 50.77087 | -121.64706 | 29931 ft | 487 kts | 22° |
| 2026-05-07 15:33 | 50.80019 | -121.62032 | 30185 ft | 485 kts | 22° |
| 2026-05-07 15:33 | 50.82946 | -121.59352 | 30426 ft | 483 kts | 22° |
| 2026-05-07 15:34 | 50.85824 | -121.56720 | 30646 ft | 482 kts | 22° |
| 2026-05-07 15:34 | 50.88737 | -121.54051 | 30811 ft | 482 kts | 22° |
| 2026-05-07 15:34 | 50.91661 | -121.51372 | 30941 ft | 483 kts | 22° |
| 2026-05-07 15:34 | 50.94851 | -121.48443 | 31026 ft | 484 kts | 22° |
| 2026-05-07 15:35 | 51.07022 | -121.37224 | 31023 ft | 484 kts | 22° |
| 2026-05-07 15:35 | 51.13782 | -121.30955 | 31093 ft | 480 kts | 22° |
| 2026-05-07 15:36 | 51.19542 | -121.25602 | 31104 ft | 478 kts | 22° |
| 2026-05-07 15:36 | 51.26271 | -121.19333 | 31108 ft | 478 kts | 22° |
| 2026-05-07 15:37 | 51.45446 | -121.01347 | 31197 ft | 486 kts | 22° |
| 2026-05-07 15:37 | 51.65664 | -120.82159 | 31151 ft | 478 kts | 21° |
| 2026-05-07 15:38 | 51.77622 | -120.70725 | 31046 ft | 464 kts | 21° |
| 2026-05-07 15:38 | 51.80824 | -120.67666 | 31134 ft | 470 kts | 21° |
| 2026-05-07 15:38 | 51.89712 | -120.59123 | 31227 ft | 486 kts | 21° |
| 2026-05-07 15:38 | 51.92602 | -120.56319 | 31138 ft | 479 kts | 21° |
| 2026-05-07 15:39 | 52.00143 | -120.48985 | 31113 ft | 460 kts | 21° |
| 2026-05-07 15:39 | 52.04143 | -120.45116 | 31174 ft | 466 kts | 21° |
| 2026-05-07 15:39 | 52.12000 | -120.37507 | 31210 ft | 481 kts | 21° |
| 2026-05-07 15:39 | 52.14852 | -120.34722 | 31164 ft | 480 kts | 21° |
| 2026-05-07 15:40 | 52.18469 | -120.31166 | 31062 ft | 475 kts | 21° |
| 2026-05-07 15:40 | 52.30805 | -120.19013 | 31005 ft | 463 kts | 21° |
| 2026-05-07 15:40 | 52.44617 | -120.05351 | 31199 ft | 475 kts | 21° |
| 2026-05-07 15:40 | 52.48174 | -120.01808 | 31164 ft | 479 kts | 22° |
| 2026-05-07 15:41 | 52.52140 | -119.97068 | 31106 ft | 491 kts | 31° |
| 2026-05-07 15:41 | 52.55709 | -119.91760 | 31107 ft | 489 kts | 32° |
| 2026-05-07 15:41 | 52.73903 | -119.64387 | 31191 ft | 490 kts | 32° |
| 2026-05-07 15:42 | 52.89199 | -119.41465 | 31202 ft | 499 kts | 34° |
| 2026-05-07 15:42 | 53.00114 | -119.24681 | 31114 ft | 486 kts | 34° |
| 2026-05-07 15:43 | 53.32644 | -118.74585 | 31115 ft | 489 kts | 37° |
| 2026-05-07 15:43 | 53.48601 | -118.49432 | 31170 ft | 500 kts | 38° |
| 2026-05-07 15:43 | 53.51306 | -118.45158 | 31121 ft | 496 kts | 38° |
| 2026-05-07 15:44 | 53.59696 | -118.31843 | 31103 ft | 486 kts | 38° |
| 2026-05-07 15:44 | 53.69033 | -118.16986 | 31118 ft | 502 kts | 38° |
| 2026-05-07 15:44 | 53.71530 | -118.12984 | 31086 ft | 498 kts | 39° |
| 2026-05-07 15:45 | 53.84958 | -117.91332 | 31035 ft | 484 kts | 39° |
| 2026-05-07 15:45 | 54.10484 | -117.49697 | 31025 ft | 494 kts | 39° |
| 2026-05-07 15:46 | 54.55729 | -116.73958 | 30978 ft | 496 kts | 39° |
| 2026-05-07 15:47 | 54.94719 | -116.06652 | 30973 ft | 495 kts | 39° |
| 2026-05-07 15:47 | 55.33235 | -115.38255 | 31000 ft | 492 kts | 40° |
| 2026-05-07 15:48 | 55.71231 | -114.68707 | 30951 ft | 486 kts | 41° |
| 2026-05-07 15:48 | 56.08082 | -113.99233 | 30871 ft | 481 kts | 42° |
| 2026-05-07 15:49 | 56.44333 | -113.28842 | 30864 ft | 480 kts | 43° |
| 2026-05-07 15:49 | 56.80155 | -112.57153 | 30868 ft | 480 kts | 44° |
| 2026-05-07 15:50 | 57.15856 | -111.83430 | 30905 ft | 483 kts | 44° |
| 2026-05-07 15:50 | 57.50915 | -111.08746 | 30876 ft | 485 kts | 45° |
| 2026-05-07 15:51 | 57.86011 | -110.31551 | 30894 ft | 487 kts | 47° |
| 2026-05-07 15:51 | 58.20908 | -109.62253 | 30918 ft | 484 kts | 41° |
| 2026-05-07 15:52 | 58.59528 | -108.90690 | 30958 ft | 487 kts | 42° |
| 2026-05-07 15:52 | 58.97921 | -108.17167 | 30979 ft | 487 kts | 43° |
| 2026-05-07 15:53 | 59.36099 | -107.41574 | 31011 ft | 486 kts | 44° |
| 2026-05-07 15:53 | 59.73428 | -106.65161 | 30995 ft | 482 kts | 44° |
| 2026-05-07 15:54 | 60.09776 | -105.88086 | 31038 ft | 475 kts | 44° |
| 2026-05-07 15:54 | 60.45463 | -105.09834 | 31023 ft | 470 kts | 44° |
| 2026-05-07 15:55 | 60.80270 | -104.30769 | 31067 ft | 469 kts | 46° |
| 2026-05-07 15:55 | 61.08973 | -103.63384 | 31075 ft | 467 kts | 46° |
| 2026-05-07 15:56 | 61.42724 | -102.81615 | 31011 ft | 465 kts | 47° |
| 2026-05-07 15:56 | 61.75774 | -101.98484 | 31062 ft | 462 kts | 46° |
| 2026-05-07 15:57 | 62.08057 | -101.14310 | 30994 ft | 460 kts | 47° |
| 2026-05-07 15:57 | 62.39720 | -100.28563 | 30979 ft | 459 kts | 48° |
| 2026-05-07 15:58 | 62.55040 | -99.84030 | 30876 ft | 461 kts | 54° |
| 2026-05-07 15:58 | 62.61532 | -99.62562 | 30906 ft | 459 kts | 54° |
| 2026-05-07 15:59 | 62.75952 | -99.14820 | 30884 ft | 453 kts | 55° |
| 2026-05-07 15:59 | 63.02883 | -98.22888 | 30916 ft | 447 kts | 57° |
| 2026-05-07 16:00 | 63.29111 | -97.29601 | 30862 ft | 443 kts | 57° |
| 2026-05-07 16:00 | 63.54445 | -96.35635 | 30826 ft | 441 kts | 58° |
| 2026-05-07 16:01 | 63.79086 | -95.40295 | 30819 ft | 440 kts | 59° |
| 2026-05-07 16:01 | 64.03059 | -94.43418 | 30773 ft | 438 kts | 60° |
| 2026-05-07 16:02 | 64.26241 | -93.45444 | 30733 ft | 437 kts | 62° |
| 2026-05-07 16:02 | 64.48618 | -92.46467 | 30718 ft | 435 kts | 63° |
| 2026-05-07 16:03 | 64.70398 | -91.45561 | 30707 ft | 434 kts | 64° |
| 2026-05-07 16:03 | 64.91339 | -90.43663 | 30720 ft | 435 kts | 65° |
| 2026-05-07 16:04 | 65.11074 | -89.41919 | 30690 ft | 433 kts | 66° |
| 2026-05-07 16:04 | 65.30309 | -88.36829 | 30685 ft | 432 kts | 67° |
| 2026-05-07 16:05 | 65.48654 | -87.30999 | 30697 ft | 429 kts | 68° |
| 2026-05-07 16:05 | 65.62734 | -86.45709 | 30672 ft | 427 kts | 68° |
| 2026-05-07 16:06 | 65.64895 | -86.32258 | 30685 ft | 427 kts | 69° |
| 2026-05-07 16:06 | 65.67023 | -86.18913 | 30685 ft | 427 kts | 69° |
| 2026-05-07 16:07 | 65.69162 | -86.05411 | 30698 ft | 427 kts | 69° |
| 2026-05-07 16:07 | 65.71278 | -85.91961 | 30690 ft | 428 kts | 69° |
| 2026-05-07 16:08 | 65.73389 | -85.78452 | 30690 ft | 428 kts | 69° |
| 2026-05-07 16:08 | 65.75494 | -85.64874 | 30690 ft | 431 kts | 69° |
| 2026-05-07 16:09 | 65.77601 | -85.51189 | 30696 ft | 435 kts | 69° |
| 2026-05-07 16:09 | 65.79721 | -85.37318 | 30691 ft | 438 kts | 70° |
| 2026-05-07 16:10 | 65.81843 | -85.23323 | 30703 ft | 438 kts | 70° |
| 2026-05-07 16:10 | 65.82881 | -85.16440 | 30876 ft | 434 kts | 70° |
| 2026-05-07 16:10 | 65.83921 | -85.09513 | 31126 ft | 434 kts | 70° |
| 2026-05-07 16:10 | 65.84962 | -85.02553 | 31328 ft | 436 kts | 70° |
| 2026-05-07 16:11 | 65.85987 | -84.95680 | 31622 ft | 434 kts | 70° |
| 2026-05-07 16:11 | 65.87021 | -84.88718 | 31903 ft | 434 kts | 71° |
| 2026-05-07 16:11 | 65.88054 | -84.81730 | 31980 ft | 439 kts | 71° |
| 2026-05-07 16:11 | 65.89089 | -84.74703 | 32104 ft | 442 kts | 71° |
| 2026-05-07 16:12 | 65.90131 | -84.67602 | 32345 ft | 442 kts | 71° |
| 2026-05-07 16:12 | 65.91160 | -84.60559 | 32587 ft | 443 kts | 71° |
| 2026-05-07 16:12 | 65.92199 | -84.53423 | 32635 ft | 446 kts | 71° |
| 2026-05-07 16:13 | 65.94277 | -84.39068 | 32689 ft | 443 kts | 71° |
| 2026-05-07 16:13 | 65.96311 | -84.24902 | 32695 ft | 440 kts | 71° |
| 2026-05-07 16:14 | 65.98323 | -84.10771 | 32689 ft | 439 kts | 72° |
| 2026-05-07 16:14 | 66.00328 | -83.96576 | 32714 ft | 440 kts | 72° |
| 2026-05-07 16:15 | 66.02334 | -83.82256 | 32712 ft | 449 kts | 72° |
| 2026-05-07 16:15 | 66.04371 | -83.67603 | 32697 ft | 452 kts | 72° |
| 2026-05-07 16:16 | 66.06387 | -83.52979 | 32700 ft | 452 kts | 72° |
| 2026-05-07 16:16 | 66.08400 | -83.38242 | 32687 ft | 451 kts | 72° |
| 2026-05-07 16:17 | 66.10379 | -83.23639 | 32650 ft | 450 kts | 72° |
| 2026-05-07 16:17 | 66.12310 | -83.09274 | 32687 ft | 436 kts | 73° |
| 2026-05-07 16:18 | 66.14212 | -82.94986 | 32709 ft | 442 kts | 73° |
| 2026-05-07 16:18 | 66.16136 | -82.80407 | 32705 ft | 447 kts | 73° |
| 2026-05-07 16:19 | 66.28324 | -81.85141 | 32661 ft | 453 kts | 74° |
| 2026-05-07 16:19 | 66.36646 | -81.16592 | 32702 ft | 430 kts | 75° |
| 2026-05-07 16:20 | 66.41210 | -80.77701 | 32814 ft | 448 kts | 75° |
| 2026-05-07 16:20 | 66.44046 | -80.53067 | 32718 ft | 442 kts | 75° |
| 2026-05-07 16:20 | 66.48963 | -80.09423 | 32628 ft | 429 kts | 76° |
| 2026-05-07 16:21 | 66.50195 | -79.98483 | 32707 ft | 436 kts | 73° |
| 2026-05-07 16:21 | 66.53789 | -79.71720 | 32798 ft | 452 kts | 72° |
| 2026-05-07 16:21 | 66.55264 | -79.60876 | 32675 ft | 448 kts | 73° |
| 2026-05-07 16:21 | 66.57444 | -79.44656 | 32660 ft | 434 kts | 73° |
| 2026-05-07 16:22 | 66.59417 | -79.29740 | 32652 ft | 431 kts | 73° |
| 2026-05-07 16:22 | 66.66110 | -78.77941 | 32791 ft | 454 kts | 74° |
| 2026-05-07 16:22 | 66.68579 | -78.58432 | 32748 ft | 451 kts | 74° |
| 2026-05-07 16:22 | 66.70167 | -78.45748 | 32695 ft | 436 kts | 74° |
| 2026-05-07 16:23 | 66.71911 | -78.31715 | 32682 ft | 430 kts | 75° |
| 2026-05-07 16:23 | 66.74605 | -78.09747 | 32838 ft | 445 kts | 75° |
| 2026-05-07 16:23 | 66.75889 | -77.99178 | 32759 ft | 452 kts | 75° |
| 2026-05-07 16:24 | 66.79839 | -77.66325 | 32615 ft | 424 kts | 75° |
| 2026-05-07 16:24 | 66.82085 | -77.47258 | 32725 ft | 437 kts | 75° |
| 2026-05-07 16:24 | 66.85929 | -77.14162 | 32743 ft | 450 kts | 75° |
| 2026-05-07 16:25 | 66.89141 | -76.86012 | 32760 ft | 448 kts | 76° |
| 2026-05-07 16:25 | 66.94270 | -76.39901 | 32692 ft | 425 kts | 76° |
| 2026-05-07 16:25 | 66.95073 | -76.32518 | 32729 ft | 431 kts | 76° |
| 2026-05-07 16:25 | 66.98250 | -76.03011 | 32842 ft | 448 kts | 77° |
| 2026-05-07 16:26 | 66.99281 | -75.93318 | 32772 ft | 444 kts | 77° |
| 2026-05-07 16:26 | 67.04692 | -75.41512 | 32711 ft | 425 kts | 77° |
| 2026-05-07 16:26 | 67.06032 | -75.28328 | 32760 ft | 433 kts | 78° |
| 2026-05-07 16:26 | 67.08169 | -75.07025 | 32847 ft | 446 kts | 78° |
| 2026-05-07 16:27 | 67.09191 | -74.96738 | 32784 ft | 448 kts | 78° |
| 2026-05-07 16:27 | 67.10701 | -74.81461 | 32743 ft | 438 kts | 78° |
| 2026-05-07 16:28 | 67.17573 | -74.09786 | 32760 ft | 439 kts | 79° |
| 2026-05-07 16:28 | 67.27947 | -72.93280 | 32780 ft | 442 kts | 81° |
| 2026-05-07 16:29 | 67.37166 | -71.79745 | 32689 ft | 427 kts | 81° |
| 2026-05-07 16:29 | 67.41711 | -71.19556 | 32818 ft | 432 kts | 81° |
| 2026-05-07 16:29 | 67.43385 | -70.96367 | 32786 ft | 432 kts | 81° |
| 2026-05-07 16:30 | 67.45466 | -70.66924 | 32781 ft | 424 kts | 81° |
| 2026-05-07 16:30 | 67.47537 | -70.36884 | 32797 ft | 422 kts | 82° |
| 2026-05-07 16:31 | 67.49581 | -70.06395 | 32790 ft | 431 kts | 82° |
| 2026-05-07 16:31 | 67.51928 | -69.75489 | 32811 ft | 436 kts | 79° |
| 2026-05-07 16:32 | 67.54454 | -69.44565 | 32797 ft | 428 kts | 80° |
| 2026-05-07 16:32 | 67.56657 | -69.16236 | 32823 ft | 418 kts | 81° |
| 2026-05-07 16:33 | 67.58907 | -68.86478 | 32836 ft | 422 kts | 81° |
| 2026-05-07 16:33 | 67.61162 | -68.55856 | 32845 ft | 430 kts | 81° |
| 2026-05-07 16:34 | 67.63374 | -68.25005 | 32825 ft | 430 kts | 81° |
| 2026-05-07 16:34 | 67.65509 | -67.94350 | 32837 ft | 427 kts | 81° |
| 2026-05-07 16:35 | 67.67443 | -67.65776 | 32842 ft | 432 kts | 82° |
| 2026-05-07 16:35 | 67.69321 | -67.37293 | 32866 ft | 416 kts | 82° |
| 2026-05-07 16:36 | 67.71233 | -67.07369 | 32948 ft | 420 kts | 82° |
| 2026-05-07 16:36 | 67.73150 | -66.76415 | 32952 ft | 432 kts | 82° |
| 2026-05-07 16:37 | 67.75031 | -66.45078 | 33013 ft | 432 kts | 83° |
| 2026-05-07 16:37 | 67.76827 | -66.14129 | 32983 ft | 423 kts | 83° |
| 2026-05-07 16:38 | 67.78207 | -65.89558 | 33047 ft | 418 kts | 84° |
| 2026-05-07 16:38 | 67.79591 | -65.64174 | 33018 ft | 436 kts | 84° |
| 2026-05-07 16:39 | 67.81043 | -65.36807 | 33012 ft | 433 kts | 84° |
| 2026-05-07 16:39 | 67.82632 | -65.05723 | 33022 ft | 423 kts | 85° |
| 2026-05-07 16:40 | 67.84162 | -64.74522 | 33041 ft | 430 kts | 85° |
| 2026-05-07 16:40 | 67.85659 | -64.42746 | 33050 ft | 441 kts | 85° |
| 2026-05-07 16:41 | 67.86870 | -64.16109 | 33000 ft | 429 kts | 86° |
| 2026-05-07 16:41 | 67.87550 | -64.00687 | 33031 ft | 418 kts | 86° |
| 2026-05-07 16:41 | 67.87989 | -63.90505 | 33012 ft | 416 kts | 86° |
| 2026-05-07 16:42 | 67.89281 | -63.59557 | 33012 ft | 428 kts | 86° |
| 2026-05-07 16:42 | 67.90548 | -63.27840 | 33021 ft | 437 kts | 87° |
| 2026-05-07 16:43 | 67.91766 | -62.95859 | 32994 ft | 431 kts | 87° |
| 2026-05-07 16:43 | 67.92897 | -62.64476 | 33010 ft | 423 kts | 87° |
| 2026-05-07 16:44 | 67.93960 | -62.33217 | 33047 ft | 425 kts | 88° |
| 2026-05-07 16:44 | 67.94978 | -62.01489 | 33052 ft | 435 kts | 88° |
| 2026-05-07 16:45 | 67.95947 | -61.69436 | 33022 ft | 433 kts | 89° |
| 2026-05-07 16:45 | 67.96845 | -61.37669 | 33027 ft | 426 kts | 89° |
| 2026-05-07 16:46 | 67.97674 | -61.06018 | 33053 ft | 435 kts | 89° |
| 2026-05-07 16:46 | 67.98452 | -60.74261 | 32939 ft | 437 kts | 90° |
| 2026-05-07 16:47 | 67.98944 | -60.52334 | 33066 ft | 424 kts | 90° |
| 2026-05-07 16:47 | 67.99595 | -60.20916 | 33067 ft | 425 kts | 91° |
| 2026-05-07 16:48 | 68.00268 | -59.89036 | 33061 ft | 436 kts | 90° |
| 2026-05-07 16:48 | 68.01236 | -59.56818 | 33058 ft | 438 kts | 89° |
| 2026-05-07 16:49 | 68.02115 | -59.24676 | 33063 ft | 428 kts | 90° |
| 2026-05-07 16:49 | 68.02892 | -58.93264 | 33100 ft | 424 kts | 90° |
| 2026-05-07 16:50 | 68.03614 | -58.61488 | 33097 ft | 433 kts | 90° |
| 2026-05-07 16:50 | 68.04292 | -58.29150 | 33103 ft | 438 kts | 91° |
| 2026-05-07 16:51 | 68.04908 | -57.96917 | 33083 ft | 429 kts | 91° |
| 2026-05-07 16:51 | 68.05445 | -57.65236 | 33099 ft | 427 kts | 92° |
| 2026-05-07 16:52 | 68.05923 | -57.33499 | 33108 ft | 426 kts | 92° |
| 2026-05-07 16:52 | 68.06341 | -57.01702 | 33119 ft | 427 kts | 92° |
| 2026-05-07 16:53 | 68.06698 | -56.69968 | 33120 ft | 430 kts | 93° |
| 2026-05-07 16:53 | 68.06996 | -56.37945 | 33122 ft | 432 kts | 93° |
| 2026-05-07 16:54 | 68.07234 | -56.05613 | 33120 ft | 434 kts | 93° |
| 2026-05-07 16:54 | 68.07409 | -55.73339 | 33070 ft | 435 kts | 93° |
| 2026-05-07 16:55 | 68.07521 | -55.40840 | 33134 ft | 436 kts | 94° |
| 2026-05-07 16:55 | 68.07569 | -55.08357 | 33129 ft | 438 kts | 94° |
| 2026-05-07 16:56 | 68.07554 | -54.75803 | 33124 ft | 438 kts | 94° |
| 2026-05-07 16:56 | 68.07411 | -54.26967 | 33116 ft | 438 kts | 95° |
| 2026-05-07 16:57 | 68.07234 | -53.94338 | 33147 ft | 438 kts | 95° |
| 2026-05-07 16:57 | 68.06993 | -53.61695 | 33125 ft | 441 kts | 95° |
| 2026-05-07 16:58 | 68.06781 | -53.38253 | 33124 ft | 443 kts | 96° |
| 2026-05-07 16:58 | 68.06611 | -53.21765 | 33127 ft | 444 kts | 96° |
| 2026-05-07 16:59 | 68.06425 | -53.05311 | 33121 ft | 444 kts | 96° |
| 2026-05-07 16:59 | 68.06222 | -52.88854 | 33120 ft | 444 kts | 96° |
| 2026-05-07 17:00 | 68.06004 | -52.72369 | 33115 ft | 444 kts | 96° |
| 2026-05-07 17:00 | 68.05769 | -52.55901 | 33051 ft | 444 kts | 96° |
| 2026-05-07 17:01 | 68.05514 | -52.39349 | 33103 ft | 446 kts | 96° |
| 2026-05-07 17:01 | 68.05246 | -52.22770 | 33108 ft | 449 kts | 96° |
| 2026-05-07 17:02 | 68.04954 | -52.05963 | 33109 ft | 452 kts | 97° |
| 2026-05-07 17:02 | 68.04647 | -51.89158 | 33092 ft | 454 kts | 97° |
| 2026-05-07 17:03 | 68.04323 | -51.72319 | 33093 ft | 454 kts | 97° |
| 2026-05-07 17:03 | 68.03981 | -51.55551 | 33079 ft | 453 kts | 97° |
| 2026-05-07 17:04 | 68.03625 | -51.38757 | 33096 ft | 449 kts | 97° |
| 2026-05-07 17:04 | 68.03252 | -51.22145 | 33097 ft | 449 kts | 97° |
| 2026-05-07 17:05 | 68.02858 | -51.05419 | 33053 ft | 450 kts | 98° |
| 2026-05-07 17:05 | 68.02449 | -50.88742 | 33054 ft | 453 kts | 97° |
| 2026-05-07 17:06 | 68.02014 | -50.71742 | 33085 ft | 465 kts | 97° |
| 2026-05-07 17:06 | 68.01560 | -50.54496 | 33097 ft | 464 kts | 97° |
| 2026-05-07 17:07 | 68.01089 | -50.37358 | 33090 ft | 463 kts | 97° |
| 2026-05-07 17:07 | 68.00602 | -50.20293 | 33086 ft | 461 kts | 97° |
| 2026-05-07 17:08 | 68.00102 | -50.03297 | 33100 ft | 459 kts | 98° |
| 2026-05-07 17:08 | 67.99670 | -49.86339 | 33121 ft | 460 kts | 96° |
| 2026-05-07 17:09 | 67.99347 | -49.69213 | 33157 ft | 461 kts | 96° |
| 2026-05-07 17:09 | 67.99014 | -49.52156 | 33155 ft | 462 kts | 96° |
| 2026-05-07 17:10 | 67.98645 | -49.35063 | 33155 ft | 463 kts | 97° |
| 2026-05-07 17:10 | 67.98245 | -49.17916 | 33200 ft | 467 kts | 96° |
| 2026-05-07 17:11 | 67.97820 | -49.00501 | 33212 ft | 471 kts | 96° |
| 2026-05-07 17:11 | 67.97379 | -48.83153 | 33205 ft | 474 kts | 96° |
| 2026-05-07 17:12 | 67.96913 | -48.65523 | 33225 ft | 475 kts | 96° |
| 2026-05-07 17:12 | 67.96431 | -48.48030 | 33235 ft | 475 kts | 96° |
| 2026-05-07 17:13 | 67.95930 | -48.30513 | 33235 ft | 474 kts | 97° |
| 2026-05-07 17:13 | 67.95408 | -48.12942 | 33233 ft | 473 kts | 97° |
| 2026-05-07 17:14 | 67.94872 | -47.95523 | 33248 ft | 472 kts | 97° |
| 2026-05-07 17:14 | 67.94320 | -47.78199 | 33251 ft | 471 kts | 97° |
| 2026-05-07 17:15 | 67.93746 | -47.60836 | 33245 ft | 474 kts | 96° |
| 2026-05-07 17:15 | 67.93149 | -47.43253 | 33247 ft | 477 kts | 97° |
| 2026-05-07 17:16 | 67.92532 | -47.25671 | 33230 ft | 480 kts | 97° |
| 2026-05-07 17:16 | 67.91893 | -47.08009 | 33233 ft | 482 kts | 97° |
| 2026-05-07 17:17 | 67.91232 | -46.90253 | 33230 ft | 482 kts | 97° |
| 2026-05-07 17:17 | 67.90555 | -46.72606 | 33229 ft | 481 kts | 97° |
| 2026-05-07 17:18 | 67.89855 | -46.54889 | 33228 ft | 479 kts | 97° |
| 2026-05-07 17:18 | 67.89145 | -46.37392 | 33230 ft | 478 kts | 98° |
| 2026-05-07 17:19 | 67.88415 | -46.19888 | 33250 ft | 478 kts | 98° |
| 2026-05-07 17:19 | 67.87653 | -46.02104 | 33263 ft | 490 kts | 97° |
| 2026-05-07 17:20 | 67.86863 | -45.84056 | 33271 ft | 493 kts | 97° |
| 2026-05-07 17:20 | 67.86052 | -45.66017 | 33261 ft | 488 kts | 97° |
| 2026-05-07 17:21 | 67.85232 | -45.48243 | 33267 ft | 487 kts | 98° |
| 2026-05-07 17:21 | 67.84389 | -45.30409 | 33290 ft | 487 kts | 98° |
| 2026-05-07 17:22 | 67.83530 | -45.12640 | 33275 ft | 489 kts | 98° |
| 2026-05-07 17:22 | 67.82644 | -44.94794 | 33273 ft | 491 kts | 98° |
| 2026-05-07 17:23 | 67.81735 | -44.76824 | 33270 ft | 492 kts | 98° |
| 2026-05-07 17:23 | 67.80806 | -44.58941 | 33265 ft | 493 kts | 97° |
| 2026-05-07 17:24 | 67.79851 | -44.40869 | 33254 ft | 494 kts | 97° |
| 2026-05-07 17:24 | 67.78886 | -44.22961 | 33257 ft | 495 kts | 97° |
| 2026-05-07 17:25 | 67.77887 | -44.04873 | 33247 ft | 496 kts | 97° |
| 2026-05-07 17:25 | 67.76875 | -43.86917 | 33250 ft | 497 kts | 98° |
| 2026-05-07 17:26 | 67.75838 | -43.68854 | 33249 ft | 497 kts | 98° |
| 2026-05-07 17:26 | 67.74784 | -43.50871 | 33244 ft | 497 kts | 98° |
| 2026-05-07 17:27 | 67.73706 | -43.32854 | 33246 ft | 497 kts | 98° |
| 2026-05-07 17:27 | 67.72793 | -43.17854 | 33244 ft | 497 kts | 98° |
| 2026-05-07 17:28 | 67.71489 | -42.96895 | 33253 ft | 499 kts | 98° |
| 2026-05-07 17:28 | 67.70537 | -42.81812 | 33252 ft | 500 kts | 97° |
| 2026-05-07 17:29 | 67.69381 | -42.63762 | 33248 ft | 502 kts | 98° |
| 2026-05-07 17:29 | 67.68190 | -42.45550 | 33256 ft | 504 kts | 98° |
| 2026-05-07 17:30 | 67.61050 | -41.42622 | 33276 ft | 506 kts | 98° |
| 2026-05-07 17:30 | 67.50229 | -40.02923 | 33322 ft | 508 kts | 99° |
| 2026-05-07 17:31 | 67.48413 | -39.85132 | 33572 ft | 506 kts | 103° |
| 2026-05-07 17:31 | 67.47405 | -39.76294 | 33850 ft | 505 kts | 103° |
| 2026-05-07 17:31 | 67.46388 | -39.67500 | 34166 ft | 505 kts | 103° |
| 2026-05-07 17:32 | 67.45384 | -39.58838 | 34527 ft | 503 kts | 103° |
| 2026-05-07 17:32 | 67.44369 | -39.50088 | 34812 ft | 502 kts | 103° |
| 2026-05-07 17:32 | 67.43370 | -39.41459 | 35049 ft | 502 kts | 103° |
| 2026-05-07 17:32 | 67.42357 | -39.32694 | 35226 ft | 504 kts | 103° |
| 2026-05-07 17:33 | 67.40316 | -39.15127 | 35299 ft | 507 kts | 103° |
| 2026-05-07 17:33 | 67.36340 | -38.81517 | 35293 ft | 503 kts | 104° |
| 2026-05-07 17:34 | 67.32192 | -38.47201 | 35313 ft | 498 kts | 104° |
| 2026-05-07 17:34 | 67.27959 | -38.12855 | 35215 ft | 506 kts | 103° |
| 2026-05-07 17:35 | 67.23563 | -37.77948 | 35181 ft | 514 kts | 103° |
| 2026-05-07 17:35 | 67.19060 | -37.42978 | 35108 ft | 512 kts | 104° |
| 2026-05-07 17:36 | 67.14518 | -37.08398 | 35111 ft | 504 kts | 104° |
| 2026-05-07 17:36 | 67.09976 | -36.74482 | 35100 ft | 504 kts | 103° |
| 2026-05-07 17:37 | 67.05313 | -36.40282 | 35108 ft | 513 kts | 104° |
| 2026-05-07 17:37 | 67.00495 | -36.05695 | 35103 ft | 520 kts | 104° |
| 2026-05-07 17:38 | 66.95594 | -35.71226 | 35104 ft | 512 kts | 104° |
| 2026-05-07 17:38 | 66.90685 | -35.37342 | 35153 ft | 504 kts | 105° |
| 2026-05-07 17:39 | 66.86606 | -35.09547 | 35206 ft | 513 kts | 104° |
| 2026-05-07 17:39 | 66.81481 | -34.75294 | 35180 ft | 523 kts | 104° |
| 2026-05-07 17:40 | 66.76261 | -34.41159 | 35197 ft | 515 kts | 104° |
| 2026-05-07 17:40 | 66.71092 | -34.07851 | 35247 ft | 506 kts | 104° |
| 2026-05-07 17:41 | 66.65876 | -33.74820 | 35282 ft | 509 kts | 104° |
| 2026-05-07 17:41 | 66.60501 | -33.41371 | 35258 ft | 521 kts | 105° |
| 2026-05-07 17:42 | 66.54959 | -33.07550 | 35238 ft | 522 kts | 105° |
| 2026-05-07 17:42 | 66.49409 | -32.74272 | 35233 ft | 513 kts | 105° |
| 2026-05-07 17:43 | 66.43844 | -32.41414 | 35230 ft | 508 kts | 105° |
| 2026-05-07 17:43 | 66.38249 | -32.08893 | 35237 ft | 517 kts | 106° |
| 2026-05-07 17:44 | 66.32470 | -31.75905 | 35253 ft | 524 kts | 106° |
| 2026-05-07 17:44 | 66.26568 | -31.42801 | 35242 ft | 522 kts | 107° |
| 2026-05-07 17:45 | 66.20694 | -31.10378 | 35247 ft | 512 kts | 107° |
| 2026-05-07 17:45 | 66.14789 | -30.78247 | 35306 ft | 512 kts | 108° |
| 2026-05-07 17:46 | 66.08790 | -30.46144 | 35266 ft | 519 kts | 108° |
| 2026-05-07 17:46 | 66.02675 | -30.13934 | 35259 ft | 521 kts | 109° |
| 2026-05-07 17:47 | 65.97041 | -29.81314 | 35262 ft | 517 kts | 104° |
| 2026-05-07 17:47 | 65.91970 | -29.48649 | 35306 ft | 509 kts | 105° |
| 2026-05-07 17:48 | 65.86857 | -29.16611 | 35303 ft | 502 kts | 105° |
| 2026-05-07 17:48 | 65.81693 | -28.84785 | 35307 ft | 505 kts | 106° |
| 2026-05-07 17:49 | 65.76421 | -28.52840 | 35288 ft | 512 kts | 107° |
| 2026-05-07 17:49 | 65.70996 | -28.20543 | 35328 ft | 515 kts | 107° |
| 2026-05-07 17:50 | 65.65530 | -27.88545 | 35267 ft | 509 kts | 108° |
| 2026-05-07 17:50 | 65.60111 | -27.57324 | 35280 ft | 500 kts | 108° |
| 2026-05-07 17:51 | 65.54656 | -27.26356 | 35303 ft | 502 kts | 108° |
| 2026-05-07 17:51 | 65.45527 | -26.75511 | 35393 ft | 515 kts | 109° |
| 2026-05-07 17:51 | 65.43510 | -26.64503 | 35340 ft | 513 kts | 109° |
| 2026-05-07 17:52 | 65.35280 | -26.20211 | 35212 ft | 497 kts | 109° |
| 2026-05-07 17:52 | 65.32408 | -26.04907 | 35307 ft | 507 kts | 110° |
| 2026-05-07 17:53 | 65.29491 | -25.89489 | 35322 ft | 513 kts | 110° |
| 2026-05-07 17:53 | 65.24819 | -25.65103 | 35337 ft | 513 kts | 111° |
| 2026-05-07 17:54 | 65.00632 | -24.43079 | 35310 ft | 509 kts | 112° |
| 2026-05-07 17:54 | 64.75627 | -23.24122 | 35281 ft | 507 kts | 114° |
| 2026-05-07 17:55 | 64.49828 | -22.07970 | 35267 ft | 504 kts | 115° |
| 2026-05-07 17:55 | 64.23044 | -20.93716 | 35217 ft | 503 kts | 117° |
| 2026-05-07 17:56 | 63.96160 | -19.84377 | 35201 ft | 501 kts | 116° |
| 2026-05-07 17:56 | 63.69172 | -18.74055 | 35181 ft | 501 kts | 118° |
| 2026-05-07 17:57 | 63.46075 | -17.84384 | 35133 ft | 499 kts | 120° |
| 2026-05-07 17:57 | 63.12639 | -16.60467 | 35087 ft | 502 kts | 121° |
| 2026-05-07 17:58 | 62.83139 | -15.57024 | 35100 ft | 500 kts | 122° |
| 2026-05-07 17:58 | 62.52828 | -14.55635 | 35018 ft | 499 kts | 123° |
| 2026-05-07 17:59 | 62.21841 | -13.56411 | 34888 ft | 496 kts | 125° |
| 2026-05-07 17:59 | 61.90523 | -12.60260 | 34800 ft | 492 kts | 127° |
| 2026-05-07 18:00 | 61.58693 | -11.66538 | 34643 ft | 490 kts | 129° |
| 2026-05-07 18:00 | 61.26252 | -10.74888 | 34616 ft | 488 kts | 129° |
| 2026-05-07 18:01 | 60.93986 | -9.87075 | 34583 ft | 488 kts | 131° |
| 2026-05-07 18:01 | 60.60587 | -8.99667 | 34599 ft | 486 kts | 133° |
| 2026-05-07 18:02 | 60.10546 | -7.74448 | 34623 ft | 480 kts | 136° |
| 2026-05-07 18:03 | 59.76331 | -6.92716 | 34670 ft | 476 kts | 137° |
| 2026-05-07 18:03 | 59.42071 | -6.13608 | 34697 ft | 471 kts | 139° |
| 2026-05-07 18:04 | 59.07794 | -5.37074 | 34735 ft | 467 kts | 139° |
| 2026-05-07 18:04 | 58.73007 | -4.61913 | 34776 ft | 466 kts | 139° |
| 2026-05-07 18:05 | 58.38133 | -3.88983 | 34822 ft | 468 kts | 140° |
| 2026-05-07 18:05 | 58.02451 | -3.16657 | 34842 ft | 466 kts | 140° |
| 2026-05-07 18:06 | 57.66681 | -2.46365 | 34890 ft | 467 kts | 140° |
| 2026-05-07 18:06 | 57.30424 | -1.77303 | 34919 ft | 467 kts | 139° |
| 2026-05-07 18:07 | 56.93682 | -1.09368 | 34945 ft | 468 kts | 139° |
| 2026-05-07 18:07 | 56.56723 | -0.42987 | 35006 ft | 468 kts | 139° |
| 2026-05-07 18:08 | 56.19405 | 0.22082 | 35002 ft | 467 kts | 139° |
| 2026-05-07 18:08 | 55.81507 | 0.86340 | 35065 ft | 468 kts | 139° |
| 2026-05-07 18:09 | 55.43458 | 1.49040 | 35079 ft | 468 kts | 139° |
| 2026-05-07 18:09 | 55.05082 | 2.10572 | 35095 ft | 468 kts | 139° |
| 2026-05-07 18:10 | 54.66377 | 2.70922 | 35115 ft | 466 kts | 138° |
| 2026-05-07 18:10 | 54.27542 | 3.29934 | 35106 ft | 465 kts | 138° |
| 2026-05-07 18:11 | 54.13438 | 3.50987 | 35114 ft | 465 kts | 138° |
| 2026-05-07 18:11 | 54.08574 | 3.58200 | 35112 ft | 464 kts | 138° |
| 2026-05-07 18:12 | 54.03714 | 3.65384 | 35117 ft | 463 kts | 139° |
| 2026-05-07 18:12 | 53.98850 | 3.72551 | 35108 ft | 463 kts | 138° |
| 2026-05-07 18:13 | 53.93954 | 3.79743 | 35118 ft | 463 kts | 139° |
| 2026-05-07 18:13 | 53.89095 | 3.86862 | 35117 ft | 464 kts | 139° |
| 2026-05-07 18:14 | 53.84206 | 3.93991 | 35118 ft | 464 kts | 139° |
| 2026-05-07 18:14 | 53.79114 | 4.00750 | 35119 ft | 465 kts | 142° |
| 2026-05-07 18:15 | 53.73959 | 4.07376 | 35108 ft | 466 kts | 142° |
| 2026-05-07 18:15 | 53.69663 | 4.12894 | 35113 ft | 466 kts | 142° |
| 2026-05-07 18:16 | 53.64521 | 4.19511 | 35107 ft | 467 kts | 142° |
| 2026-05-07 18:16 | 53.59333 | 4.26180 | 35113 ft | 468 kts | 142° |
| 2026-05-07 18:17 | 53.54168 | 4.32802 | 35117 ft | 470 kts | 142° |
| 2026-05-07 18:17 | 53.48900 | 4.39533 | 35132 ft | 477 kts | 142° |
| 2026-05-07 18:18 | 53.43603 | 4.46279 | 35121 ft | 478 kts | 142° |
| 2026-05-07 18:18 | 53.38312 | 4.52994 | 35121 ft | 478 kts | 142° |
| 2026-05-07 18:19 | 53.33028 | 4.59679 | 35117 ft | 477 kts | 142° |
| 2026-05-07 18:19 | 53.27715 | 4.66380 | 35116 ft | 476 kts | 142° |
| 2026-05-07 18:20 | 53.22452 | 4.72997 | 35104 ft | 475 kts | 142° |
| 2026-05-07 18:20 | 53.17185 | 4.79598 | 35104 ft | 474 kts | 142° |
| 2026-05-07 18:21 | 53.11898 | 4.86208 | 35105 ft | 474 kts | 143° |
| 2026-05-07 18:21 | 53.06628 | 4.92768 | 35103 ft | 476 kts | 143° |
| 2026-05-07 18:22 | 53.01301 | 4.99379 | 35103 ft | 477 kts | 143° |
| 2026-05-07 18:22 | 52.95991 | 5.05951 | 35105 ft | 478 kts | 143° |
| 2026-05-07 18:23 | 52.90633 | 5.12562 | 35093 ft | 479 kts | 144° |
| 2026-05-07 18:23 | 52.85297 | 5.19126 | 35103 ft | 480 kts | 144° |
| 2026-05-07 18:24 | 52.79911 | 5.25729 | 35102 ft | 481 kts | 144° |
| 2026-05-07 18:24 | 52.74537 | 5.32295 | 35090 ft | 482 kts | 144° |
| 2026-05-07 18:25 | 52.69123 | 5.38890 | 35082 ft | 482 kts | 144° |
| 2026-05-07 18:25 | 52.63730 | 5.45441 | 35079 ft | 482 kts | 145° |
| 2026-05-07 18:26 | 52.58345 | 5.51960 | 35065 ft | 483 kts | 145° |
| 2026-05-07 18:26 | 52.52947 | 5.58474 | 35090 ft | 484 kts | 145° |
| 2026-05-07 18:27 | 52.47495 | 5.65034 | 35090 ft | 485 kts | 145° |
| 2026-05-07 18:27 | 52.42062 | 5.71550 | 35075 ft | 485 kts | 145° |
| 2026-05-07 18:28 | 52.36593 | 5.78090 | 35072 ft | 486 kts | 145° |
| 2026-05-07 18:28 | 52.31115 | 5.84617 | 35067 ft | 486 kts | 146° |
| 2026-05-07 18:29 | 52.25657 | 5.91104 | 35084 ft | 486 kts | 146° |
| 2026-05-07 18:29 | 52.20198 | 5.97569 | 35082 ft | 486 kts | 146° |
| 2026-05-07 18:30 | 52.14737 | 6.04019 | 35075 ft | 486 kts | 146° |
| 2026-05-07 18:30 | 52.09263 | 6.10463 | 35071 ft | 486 kts | 146° |
| 2026-05-07 18:31 | 52.03754 | 6.16929 | 35078 ft | 486 kts | 146° |
| 2026-05-07 18:31 | 51.98276 | 6.23341 | 35078 ft | 487 kts | 146° |
| 2026-05-07 18:32 | 51.92910 | 6.30022 | 35071 ft | 482 kts | 143° |
| 2026-05-07 18:32 | 51.90341 | 6.33402 | 35048 ft | 466 kts | 142° |
| 2026-05-07 18:32 | 51.87896 | 6.36633 | 35060 ft | 450 kts | 142° |
| 2026-05-07 18:32 | 51.85504 | 6.39787 | 35031 ft | 435 kts | 143° |
| 2026-05-07 18:33 | 51.83206 | 6.42803 | 35062 ft | 425 kts | 143° |
| 2026-05-07 18:33 | 51.78589 | 6.48818 | 35062 ft | 425 kts | 143° |
| 2026-05-07 18:34 | 51.73982 | 6.54791 | 35071 ft | 425 kts | 143° |
| 2026-05-07 18:34 | 51.69381 | 6.60740 | 35064 ft | 425 kts | 143° |
| 2026-05-07 18:35 | 51.64767 | 6.66695 | 35066 ft | 425 kts | 143° |
| 2026-05-07 18:35 | 51.60156 | 6.72629 | 35050 ft | 425 kts | 143° |
| 2026-05-07 18:36 | 51.55511 | 6.78590 | 35065 ft | 425 kts | 143° |
| 2026-05-07 18:36 | 51.50901 | 6.84492 | 35062 ft | 426 kts | 143° |
| 2026-05-07 18:37 | 51.46236 | 6.90448 | 34890 ft | 431 kts | 143° |
| 2026-05-07 18:37 | 51.43873 | 6.93458 | 34377 ft | 434 kts | 143° |
| 2026-05-07 18:37 | 51.41527 | 6.96444 | 33866 ft | 433 kts | 143° |
| 2026-05-07 18:37 | 51.39159 | 6.99455 | 33132 ft | 435 kts | 143° |
| 2026-05-07 18:38 | 51.36764 | 7.02494 | 32343 ft | 439 kts | 143° |
| 2026-05-07 18:38 | 51.34353 | 7.05551 | 31569 ft | 443 kts | 143° |
| 2026-05-07 18:38 | 51.31953 | 7.08589 | 30844 ft | 446 kts | 143° |
| 2026-05-07 18:38 | 51.29495 | 7.11695 | 30108 ft | 448 kts | 143° |
| 2026-05-07 18:39 | 51.27012 | 7.14648 | 29237 ft | 449 kts | 148° |
| 2026-05-07 18:39 | 51.24322 | 7.17212 | 28440 ft | 449 kts | 154° |
| 2026-05-07 18:39 | 51.21507 | 7.19378 | 27930 ft | 446 kts | 156° |
| 2026-05-07 18:39 | 51.18754 | 7.21480 | 27624 ft | 437 kts | 155° |
| 2026-05-07 18:40 | 51.16060 | 7.23575 | 27550 ft | 422 kts | 155° |
| 2026-05-07 18:40 | 51.13470 | 7.25611 | 27432 ft | 410 kts | 155° |
| 2026-05-07 18:40 | 51.10930 | 7.27621 | 27122 ft | 403 kts | 155° |
| 2026-05-07 18:40 | 51.08446 | 7.29647 | 26835 ft | 396 kts | 154° |
| 2026-05-07 18:41 | 51.06050 | 7.31633 | 26559 ft | 389 kts | 154° |
| 2026-05-07 18:41 | 51.03655 | 7.33623 | 26301 ft | 382 kts | 154° |
| 2026-05-07 18:41 | 51.01341 | 7.35543 | 26016 ft | 377 kts | 154° |
| 2026-05-07 18:41 | 50.99001 | 7.37476 | 25641 ft | 375 kts | 154° |
| 2026-05-07 18:42 | 50.96735 | 7.39344 | 25401 ft | 368 kts | 154° |
| 2026-05-07 18:42 | 50.94473 | 7.41205 | 25114 ft | 362 kts | 154° |
| 2026-05-07 18:42 | 50.92236 | 7.43040 | 24737 ft | 360 kts | 155° |
| 2026-05-07 18:42 | 50.90037 | 7.44840 | 24336 ft | 359 kts | 155° |
| 2026-05-07 18:43 | 50.87815 | 7.46659 | 23950 ft | 358 kts | 155° |
| 2026-05-07 18:43 | 50.85586 | 7.48479 | 23353 ft | 362 kts | 155° |
| 2026-05-07 18:43 | 50.83335 | 7.50315 | 22669 ft | 367 kts | 154° |
| 2026-05-07 18:43 | 50.81072 | 7.52160 | 22071 ft | 370 kts | 155° |
| 2026-05-07 18:44 | 50.78766 | 7.54039 | 21484 ft | 372 kts | 154° |
| 2026-05-07 18:44 | 50.76450 | 7.55924 | 20851 ft | 375 kts | 154° |
| 2026-05-07 18:44 | 50.74146 | 7.57797 | 20270 ft | 378 kts | 154° |
| 2026-05-07 18:44 | 50.71779 | 7.59718 | 19664 ft | 381 kts | 154° |
| 2026-05-07 18:45 | 50.69446 | 7.61611 | 19077 ft | 383 kts | 154° |
| 2026-05-07 18:45 | 50.67087 | 7.63524 | 18485 ft | 375 kts | 154° |
| 2026-05-07 18:45 | 50.64771 | 7.65400 | 17530 ft | 375 kts | 154° |
| 2026-05-07 18:45 | 50.62446 | 7.67280 | 16920 ft | 377 kts | 154° |
| 2026-05-07 18:46 | 50.60118 | 7.69160 | 16541 ft | 372 kts | 154° |
| 2026-05-07 18:46 | 50.57835 | 7.71003 | 16131 ft | 362 kts | 154° |
| 2026-05-07 18:46 | 50.55634 | 7.72778 | 15352 ft | 358 kts | 154° |
| 2026-05-07 18:46 | 50.53407 | 7.74569 | 14453 ft | 360 kts | 154° |
| 2026-05-07 18:47 | 50.51173 | 7.76365 | 13885 ft | 363 kts | 154° |
| 2026-05-07 18:47 | 50.48928 | 7.78170 | 13543 ft | 357 kts | 154° |
| 2026-05-07 18:47 | 50.46760 | 7.79910 | 13271 ft | 350 kts | 154° |
| 2026-05-07 18:47 | 50.44613 | 7.81639 | 12987 ft | 343 kts | 153° |
| 2026-05-07 18:48 | 50.42594 | 7.83591 | 12701 ft | 338 kts | 144° |
| 2026-05-07 18:48 | 50.40751 | 7.85858 | 12442 ft | 331 kts | 142° |
| 2026-05-07 18:48 | 50.38988 | 7.88075 | 12167 ft | 325 kts | 142° |
| 2026-05-07 18:48 | 50.37223 | 7.90288 | 11845 ft | 321 kts | 142° |
| 2026-05-07 18:49 | 50.35495 | 7.92445 | 11524 ft | 319 kts | 142° |
| 2026-05-07 18:49 | 50.33757 | 7.94606 | 11191 ft | 316 kts | 142° |
| 2026-05-07 18:49 | 50.32033 | 7.96742 | 10866 ft | 314 kts | 142° |
| 2026-05-07 18:49 | 50.30319 | 7.98862 | 10533 ft | 312 kts | 142° |
| 2026-05-07 18:50 | 50.28638 | 8.00938 | 10239 ft | 310 kts | 142° |
| 2026-05-07 18:50 | 50.26962 | 8.03006 | 10110 ft | 300 kts | 142° |
| 2026-05-07 18:50 | 50.25487 | 8.05190 | 10061 ft | 285 kts | 130° |
| 2026-05-07 18:50 | 50.24273 | 8.07624 | 10052 ft | 289 kts | 127° |
| 2026-05-07 18:51 | 50.23067 | 8.10198 | 9716 ft | 293 kts | 126° |
| 2026-05-07 18:51 | 50.22187 | 8.12991 | 9218 ft | 292 kts | 100° |
| 2026-05-07 18:51 | 50.22017 | 8.16118 | 8804 ft | 289 kts | 92° |
| 2026-05-07 18:51 | 50.21910 | 8.19269 | 8431 ft | 290 kts | 93° |
| 2026-05-07 18:52 | 50.21760 | 8.22416 | 8229 ft | 288 kts | 94° |
| 2026-05-07 18:52 | 50.21579 | 8.25503 | 8094 ft | 286 kts | 95° |
| 2026-05-07 18:52 | 50.21380 | 8.28564 | 8031 ft | 280 kts | 96° |
| 2026-05-07 18:52 | 50.21178 | 8.31562 | 7972 ft | 274 kts | 95° |
| 2026-05-07 18:53 | 50.20981 | 8.34455 | 7911 ft | 267 kts | 95° |
| 2026-05-07 18:53 | 50.20606 | 8.37236 | 7765 ft | 259 kts | 117° |
| 2026-05-07 18:53 | 50.19469 | 8.39321 | 7592 ft | 253 kts | 147° |
| 2026-05-07 18:53 | 50.17897 | 8.40515 | 7447 ft | 248 kts | 161° |
| 2026-05-07 18:54 | 50.16292 | 8.41418 | 7204 ft | 248 kts | 161° |
| 2026-05-07 18:54 | 50.14686 | 8.42329 | 7122 ft | 243 kts | 161° |
| 2026-05-07 18:54 | 50.13050 | 8.42966 | 7046 ft | 241 kts | 184° |
| 2026-05-07 18:54 | 50.11484 | 8.42253 | 7073 ft | 241 kts | 216° |
| 2026-05-07 18:55 | 50.10358 | 8.40340 | 7068 ft | 241 kts | 243° |
| 2026-05-07 18:55 | 50.09703 | 8.37935 | 7056 ft | 241 kts | 251° |
| 2026-05-07 18:55 | 50.09122 | 8.35508 | 7061 ft | 241 kts | 251° |
| 2026-05-07 18:55 | 50.08537 | 8.33047 | 7044 ft | 240 kts | 251° |
| 2026-05-07 18:56 | 50.07964 | 8.30637 | 6852 ft | 239 kts | 251° |
| 2026-05-07 18:56 | 50.07384 | 8.28207 | 6605 ft | 237 kts | 251° |
| 2026-05-07 18:56 | 50.06814 | 8.25834 | 6391 ft | 235 kts | 251° |
| 2026-05-07 18:56 | 50.06237 | 8.23444 | 6103 ft | 234 kts | 250° |
| 2026-05-07 18:57 | 50.05662 | 8.21065 | 5784 ft | 234 kts | 250° |
| 2026-05-07 18:57 | 50.05085 | 8.18693 | 5457 ft | 234 kts | 250° |
| 2026-05-07 18:57 | 50.04514 | 8.16349 | 5111 ft | 234 kts | 250° |
| 2026-05-07 18:57 | 50.03934 | 8.13978 | 4774 ft | 234 kts | 250° |
| 2026-05-07 18:58 | 50.03354 | 8.11605 | 4440 ft | 233 kts | 250° |
| 2026-05-07 18:58 | 50.02784 | 8.09268 | 4151 ft | 232 kts | 251° |
| 2026-05-07 18:58 | 50.02219 | 8.06954 | 4058 ft | 224 kts | 250° |
| 2026-05-07 18:58 | 50.01667 | 8.04691 | 4027 ft | 229 kts | 250° |
| 2026-05-07 18:59 | 50.01093 | 8.02340 | 4033 ft | 234 kts | 250° |
| 2026-05-07 18:59 | 50.00510 | 7.99957 | 4020 ft | 234 kts | 250° |
| 2026-05-07 18:59 | 49.99941 | 7.97623 | 4012 ft | 232 kts | 251° |
| 2026-05-07 18:59 | 49.99375 | 7.95264 | 4006 ft | 231 kts | 251° |
| 2026-05-07 19:00 | 49.98823 | 7.92939 | 3984 ft | 231 kts | 251° |
| 2026-05-07 19:00 | 49.98252 | 7.90589 | 3974 ft | 231 kts | 250° |
| 2026-05-07 19:00 | 49.97868 | 7.89036 | 3964 ft | 230 kts | 250° |
| 2026-05-07 19:00 | 49.97100 | 7.85981 | 4024 ft | 229 kts | 250° |
| 2026-05-07 19:01 | 49.96710 | 7.84425 | 4021 ft | 233 kts | 250° |
| 2026-05-07 19:01 | 49.95931 | 7.81285 | 4020 ft | 234 kts | 250° |
| 2026-05-07 19:01 | 49.95537 | 7.79688 | 4026 ft | 234 kts | 250° |
| 2026-05-07 19:01 | 49.94964 | 7.77361 | 4011 ft | 232 kts | 250° |
| 2026-05-07 19:02 | 49.94383 | 7.75013 | 4035 ft | 231 kts | 250° |
| 2026-05-07 19:02 | 49.93633 | 7.72832 | 4039 ft | 232 kts | 227° |
| 2026-05-07 19:02 | 49.92290 | 7.71430 | 4080 ft | 238 kts | 197° |
| 2026-05-07 19:02 | 49.90670 | 7.71190 | 4135 ft | 238 kts | 168° |
| 2026-05-07 19:03 | 49.89178 | 7.72205 | 4172 ft | 233 kts | 140° |
| 2026-05-07 19:03 | 49.88025 | 7.73942 | 4072 ft | 234 kts | 133° |
| 2026-05-07 19:03 | 49.86903 | 7.75798 | 4053 ft | 235 kts | 131° |
| 2026-05-07 19:03 | 49.85806 | 7.77662 | 4057 ft | 236 kts | 131° |
| 2026-05-07 19:04 | 49.84780 | 7.79610 | 4041 ft | 230 kts | 116° |
| 2026-05-07 19:04 | 49.84402 | 7.81997 | 4010 ft | 232 kts | 84° |
| 2026-05-07 19:04 | 49.84863 | 7.84356 | 4038 ft | 233 kts | 58° |
| 2026-05-07 19:04 | 49.85769 | 7.86424 | 4074 ft | 231 kts | 53° |
| 2026-05-07 19:05 | 49.86675 | 7.88497 | 4082 ft | 230 kts | 60° |
| 2026-05-07 19:05 | 49.87311 | 7.90744 | 4013 ft | 230 kts | 68° |
| 2026-05-07 19:05 | 49.87885 | 7.93066 | 4011 ft | 231 kts | 67° |
| 2026-05-07 19:05 | 49.88491 | 7.95408 | 3987 ft | 233 kts | 66° |
| 2026-05-07 19:06 | 49.89163 | 7.97674 | 3943 ft | 233 kts | 62° |
| 2026-05-07 19:06 | 49.90531 | 8.02256 | 3938 ft | 232 kts | 66° |
| 2026-05-07 19:06 | 49.91126 | 8.04558 | 3950 ft | 233 kts | 68° |
| 2026-05-07 19:07 | 49.91684 | 8.06919 | 3964 ft | 232 kts | 69° |
| 2026-05-07 19:07 | 49.92222 | 8.09265 | 3972 ft | 232 kts | 69° |
| 2026-05-07 19:07 | 49.92780 | 8.11618 | 3968 ft | 231 kts | 69° |
| 2026-05-07 19:07 | 49.93334 | 8.13967 | 4001 ft | 231 kts | 69° |
| 2026-05-07 19:08 | 49.93899 | 8.16303 | 4031 ft | 232 kts | 68° |
| 2026-05-07 19:08 | 49.94485 | 8.18642 | 4045 ft | 227 kts | 68° |
| 2026-05-07 19:08 | 49.95019 | 8.20907 | 3967 ft | 219 kts | 69° |
| 2026-05-07 19:08 | 49.95513 | 8.23079 | 3967 ft | 210 kts | 69° |
| 2026-05-07 19:09 | 49.95998 | 8.25132 | 3998 ft | 199 kts | 68° |
| 2026-05-07 19:09 | 49.96485 | 8.27149 | 3863 ft | 197 kts | 68° |
| 2026-05-07 19:09 | 49.96957 | 8.29136 | 3638 ft | 199 kts | 69° |
| 2026-05-07 19:09 | 49.97426 | 8.31168 | 3444 ft | 199 kts | 68° |
| 2026-05-07 19:10 | 49.97914 | 8.33179 | 3169 ft | 197 kts | 68° |
| 2026-05-07 19:10 | 49.98410 | 8.35157 | 2888 ft | 195 kts | 67° |
| 2026-05-07 19:10 | 49.98885 | 8.37096 | 2595 ft | 193 kts | 68° |
| 2026-05-07 19:10 | 49.99338 | 8.39030 | 2370 ft | 188 kts | 68° |
| 2026-05-07 19:11 | 49.99763 | 8.40904 | 2106 ft | 177 kts | 70° |
| 2026-05-07 19:11 | 50.00168 | 8.42673 | 1817 ft | 171 kts | 68° |
| 2026-05-07 19:11 | 50.00579 | 8.44370 | 1604 ft | 165 kts | 68° |
| 2026-05-07 19:11 | 50.00970 | 8.46003 | 1394 ft | 158 kts | 69° |
| 2026-05-07 19:12 | 50.01343 | 8.47609 | 1167 ft | 154 kts | 69° |
| 2026-05-07 19:12 | 50.01723 | 8.49154 | 920 ft | 156 kts | 69° |
| 2026-05-07 19:12 | 50.02118 | 8.50738 | 703 ft | 158 kts | 69° |
| 2026-05-07 19:12 | 50.02492 | 8.52339 | 529 ft | 155 kts | 69° |
| 2026-05-07 19:13 | 50.02858 | 8.53852 | 354 ft | 149 kts | 69° |
| 2026-05-07 19:13 | 50.03182 | 8.55205 | 359 ft | 112 kts | 70° |
| 2026-05-07 19:13 | 50.03399 | 8.56115 | 359 ft | 68 kts | 69° |
| 2026-05-07 19:13 | 50.03517 | 8.56607 | 359 ft | 37 kts | 69° |
| 2026-05-07 19:14 | 50.03602 | 8.56915 | 363 ft | 27 kts | 58° |
| 2026-05-07 19:14 | 50.03733 | 8.57123 | 366 ft | 27 kts | 40° |
| 2026-05-07 19:14 | 50.03858 | 8.57285 | 372 ft | 18 kts | 39° |
| 2026-05-07 19:14 | 50.03925 | 8.57372 | 372 ft | 12 kts | 40° |
| 2026-05-07 19:15 | 50.03972 | 8.57480 | 371 ft | 12 kts | 70° |
| 2026-05-07 19:15 | 50.04001 | 8.57606 | 374 ft | 12 kts | 70° |
| 2026-05-07 19:15 | 50.04031 | 8.57728 | 376 ft | 14 kts | 69° |
| 2026-05-07 19:15 | 50.04063 | 8.57864 | 374 ft | 14 kts | 69° |
| 2026-05-07 19:16 | 50.04096 | 8.58002 | 376 ft | 14 kts | 69° |
| 2026-05-07 19:16 | 50.04142 | 8.58125 | 378 ft | 13 kts | 44° |
| 2026-05-07 19:16 | 50.04209 | 8.58188 | 375 ft | 10 kts | 26° |
| 2026-05-07 19:16 | 50.04240 | 8.58209 | 374 ft | 4 kts | 17° |
| 2026-05-07 19:17 | 50.04265 | 8.58211 | 372 ft | 4 kts | 355° |
| 2026-05-07 19:17 | 50.04275 | 8.58206 | 376 ft | 0 kts | 342° |
| 2026-05-07 19:18 | 50.04278 | 8.58205 | 375 ft | 2 kts | 342° |
| 2026-05-07 19:18 | 50.04323 | 8.58182 | 373 ft | 9 kts | 341° |
| 2026-05-07 19:18 | 50.04381 | 8.58149 | 373 ft | 9 kts | 340° |
| 2026-05-07 19:19 | 50.04442 | 8.58114 | 374 ft | 11 kts | 340° |
| 2026-05-07 19:19 | 50.04512 | 8.58073 | 373 ft | 9 kts | 334° |
| 2026-05-07 19:19 | 50.04533 | 8.57983 | 372 ft | 10 kts | 261° |
| 2026-05-07 19:19 | 50.04510 | 8.57885 | 373 ft | 10 kts | 251° |
| 2026-05-07 19:20 | 50.04495 | 8.57819 | 372 ft | 4 kts | 250° |
| 2026-05-07 19:20 | 50.04486 | 8.57784 | 374 ft | 3 kts | 250° |
| 2026-05-07 19:20 | 50.04480 | 8.57757 | 370 ft | 2 kts | 250° |
| 2026-05-07 19:20 | 50.04455 | 8.57651 | 373 ft | 19 kts | 250° |
| 2026-05-07 19:21 | 50.04407 | 8.57452 | 370 ft | 20 kts | 250° |
| 2026-05-07 19:21 | 50.04363 | 8.57264 | 367 ft | 17 kts | 249° |
| 2026-05-07 19:21 | 50.04320 | 8.57089 | 370 ft | 17 kts | 250° |
| 2026-05-07 19:21 | 50.04279 | 8.56914 | 365 ft | 16 kts | 250° |
| 2026-05-07 19:22 | 50.04242 | 8.56757 | 367 ft | 12 kts | 249° |
| 2026-05-07 19:22 | 50.04217 | 8.56653 | 366 ft | 10 kts | 249° |
| 2026-05-07 19:22 | 50.04195 | 8.56561 | 367 ft | 7 kts | 250° |
| 2026-05-07 19:22 | 50.04180 | 8.56502 | 366 ft | 6 kts | 249° |
| 2026-05-07 19:23 | 50.04167 | 8.56447 | 367 ft | 5 kts | 249° |
| 2026-05-07 19:23 | 50.04155 | 8.56395 | 365 ft | 5 kts | 249° |
| 2026-05-07 19:23 | 50.04144 | 8.56341 | 365 ft | 5 kts | 264° |
| 2026-05-07 19:23 | 50.04160 | 8.56292 | 363 ft | 5 kts | 317° |
| 2026-05-07 19:24 | 50.04193 | 8.56267 | 363 ft | 5 kts | 341° |
| 2026-05-07 19:24 | 50.04227 | 8.56248 | 366 ft | 5 kts | 340° |
| 2026-05-07 19:24 | 50.04261 | 8.56228 | 366 ft | 5 kts | 337° |
| 2026-05-07 19:24 | 50.04284 | 8.56176 | 368 ft | 8 kts | 280° |
| 2026-05-07 19:25 | 50.04273 | 8.56083 | 361 ft | 9 kts | 250° |
| 2026-05-07 19:25 | 50.04268 | 8.55987 | 367 ft | 9 kts | 300° |
| 2026-05-07 19:25 | 50.04325 | 8.55941 | 365 ft | 9 kts | 339° |
| 2026-05-07 19:25 | 50.04385 | 8.55911 | 365 ft | 9 kts | 351° |